sensor_id;sensor_type;location;lat;lon;timestamp;pressure;altitude;pressure_sealevel;temperature;humidity
24996;BME280;13016;52.162;21.034;2022-11-20T00:00:51;100335.96;;;0.29;52.74
24996;BME280;13016;52.162;21.034;2022-11-20T00:03:17;100338.70;;;0.22;52.93
24996;BME280;13016;52.162;21.034;2022-11-20T00:05:43;100337.88;;;0.20;53.10
24996;BME280;13016;52.162;21.034;2022-11-20T00:08:08;100340.20;;;0.25;52.97
24996;BME280;13016;52.162;21.034;2022-11-20T00:10:36;100343.17;;;0.06;53.24
24996;BME280;13016;52.162;21.034;2022-11-20T00:13:01;100346.06;;;0.09;53.45
24996;BME280;13016;52.162;21.034;2022-11-20T00:15:27;100344.52;;;0.08;53.31
24996;BME280;13016;52.162;21.034;2022-11-20T00:17:52;100344.92;;;0.05;53.43
24996;BME280;13016;52.162;21.034;2022-11-20T00:20:17;100345.88;;;0.19;53.30
24996;BME280;13016;52.162;21.034;2022-11-20T00:22:43;100342.09;;;0.17;53.19
24996;BME280;13016;52.162;21.034;2022-11-20T00:25:08;100339.95;;;0.20;53.09
24996;BME280;13016;52.162;21.034;2022-11-20T00:27:33;100339.73;;;-0.05;53.42
24996;BME280;13016;52.162;21.034;2022-11-20T00:29:59;100334.03;;;0.03;53.70
24996;BME280;13016;52.162;21.034;2022-11-20T00:32:24;100336.21;;;-0.02;53.74
24996;BME280;13016;52.162;21.034;2022-11-20T00:34:49;100334.77;;;0.02;53.65
24996;BME280;13016;52.162;21.034;2022-11-20T00:37:14;100332.77;;;0.06;53.64
24996;BME280;13016;52.162;21.034;2022-11-20T00:39:40;100330.39;;;0.03;53.62
24996;BME280;13016;52.162;21.034;2022-11-20T00:42:05;100330.94;;;0.03;53.74
24996;BME280;13016;52.162;21.034;2022-11-20T00:44:30;100323.80;;;0.12;53.70
24996;BME280;13016;52.162;21.034;2022-11-20T00:46:56;100324.61;;;0.06;53.54
24996;BME280;13016;52.162;21.034;2022-11-20T00:49:21;100328.35;;;0.01;53.75
24996;BME280;13016;52.162;21.034;2022-11-20T00:51:46;100329.05;;;0.01;53.86
24996;BME280;13016;52.162;21.034;2022-11-20T00:54:11;100324.78;;;-0.03;53.83
24996;BME280;13016;52.162;21.034;2022-11-20T00:56:37;100322.08;;;0.03;54.01
24996;BME280;13016;52.162;21.034;2022-11-20T00:59:02;100318.01;;;0.16;53.65
24996;BME280;13016;52.162;21.034;2022-11-20T01:01:28;100316.89;;;0.02;53.69
24996;BME280;13016;52.162;21.034;2022-11-20T01:03:55;100316.70;;;0.12;53.71
24996;BME280;13016;52.162;21.034;2022-11-20T01:06:23;100316.66;;;0.23;53.40
24996;BME280;13016;52.162;21.034;2022-11-20T01:08:50;100312.74;;;0.28;53.18
24996;BME280;13016;52.162;21.034;2022-11-20T01:11:19;100307.08;;;0.07;53.44
24996;BME280;13016;52.162;21.034;2022-11-20T01:13:47;100306.55;;;0.25;53.39
24996;BME280;13016;52.162;21.034;2022-11-20T01:16:21;100308.77;;;0.27;53.15
24996;BME280;13016;52.162;21.034;2022-11-20T01:18:49;100303.01;;;0.11;53.44
24996;BME280;13016;52.162;21.034;2022-11-20T01:21:21;100304.99;;;0.25;53.41
24996;BME280;13016;52.162;21.034;2022-11-20T01:23:47;100301.08;;;0.46;52.90
24996;BME280;13016;52.162;21.034;2022-11-20T01:26:16;100300.50;;;0.56;52.59
24996;BME280;13016;52.162;21.034;2022-11-20T01:28:42;100300.80;;;0.51;52.38
24996;BME280;13016;52.162;21.034;2022-11-20T01:31:25;100298.52;;;0.34;52.53
24996;BME280;13016;52.162;21.034;2022-11-20T01:33:52;100291.91;;;0.36;52.68
24996;BME280;13016;52.162;21.034;2022-11-20T01:36:20;100288.09;;;0.37;52.50
24996;BME280;13016;52.162;21.034;2022-11-20T01:38:46;100288.17;;;0.24;52.88
24996;BME280;13016;52.162;21.034;2022-11-20T01:41:12;100289.24;;;0.05;53.46
24996;BME280;13016;52.162;21.034;2022-11-20T01:43:38;100293.61;;;0.30;53.48
24996;BME280;13016;52.162;21.034;2022-11-20T01:46:14;100296.52;;;0.40;52.92
24996;BME280;13016;52.162;21.034;2022-11-20T01:53:46;100290.04;;;0.09;54.35
24996;BME280;13016;52.162;21.034;2022-11-20T01:56:14;100290.93;;;0.34;54.02
24996;BME280;13016;52.162;21.034;2022-11-20T01:58:45;100288.02;;;0.06;54.71
24996;BME280;13016;52.162;21.034;2022-11-20T02:01:13;100288.79;;;0.19;54.84
24996;BME280;13016;52.162;21.034;2022-11-20T02:03:38;100288.79;;;0.11;55.08
24996;BME280;13016;52.162;21.034;2022-11-20T02:08:32;100281.34;;;0.28;55.03
24996;BME280;13016;52.162;21.034;2022-11-20T02:10:58;100275.40;;;0.13;55.47
24996;BME280;13016;52.162;21.034;2022-11-20T02:13:23;100274.59;;;0.18;55.51
24996;BME280;13016;52.162;21.034;2022-11-20T02:15:49;100276.63;;;0.20;55.57
24996;BME280;13016;52.162;21.034;2022-11-20T02:18:16;100283.22;;;0.45;55.24
24996;BME280;13016;52.162;21.034;2022-11-20T02:20:44;100283.11;;;0.25;55.63
24996;BME280;13016;52.162;21.034;2022-11-20T02:23:24;100280.41;;;0.30;55.50
24996;BME280;13016;52.162;21.034;2022-11-20T02:25:55;100279.52;;;0.55;55.14
24996;BME280;13016;52.162;21.034;2022-11-20T02:28:21;100282.48;;;0.63;54.75
24996;BME280;13016;52.162;21.034;2022-11-20T02:30:47;100282.20;;;0.52;55.03
24996;BME280;13016;52.162;21.034;2022-11-20T02:33:12;100284.94;;;0.46;55.19
24996;BME280;13016;52.162;21.034;2022-11-20T02:35:41;100284.80;;;0.52;54.99
24996;BME280;13016;52.162;21.034;2022-11-20T02:38:08;100289.46;;;0.54;54.98
24996;BME280;13016;52.162;21.034;2022-11-20T02:40:34;100287.05;;;0.60;55.02
24996;BME280;13016;52.162;21.034;2022-11-20T02:42:59;100287.45;;;0.66;54.89
24996;BME280;13016;52.162;21.034;2022-11-20T02:45:24;100286.77;;;0.49;55.17
24996;BME280;13016;52.162;21.034;2022-11-20T02:47:50;100285.54;;;0.26;55.58
24996;BME280;13016;52.162;21.034;2022-11-20T02:50:16;100286.77;;;0.25;55.83
24996;BME280;13016;52.162;21.034;2022-11-20T02:52:41;100291.17;;;0.23;55.93
24996;BME280;13016;52.162;21.034;2022-11-20T02:55:07;100293.87;;;0.42;55.77
24996;BME280;13016;52.162;21.034;2022-11-20T02:57:32;100300.26;;;0.60;55.16
24996;BME280;13016;52.162;21.034;2022-11-20T02:59:58;100301.77;;;0.62;55.06
24996;BME280;13016;52.162;21.034;2022-11-20T03:02:23;100296.12;;;0.59;55.00
24996;BME280;13016;52.162;21.034;2022-11-20T03:04:48;100293.16;;;0.43;55.37
24996;BME280;13016;52.162;21.034;2022-11-20T03:07:14;100293.98;;;0.37;55.62
24996;BME280;13016;52.162;21.034;2022-11-20T03:09:39;100289.92;;;0.49;55.59
24996;BME280;13016;52.162;21.034;2022-11-20T03:12:05;100290.14;;;0.38;55.63
24996;BME280;13016;52.162;21.034;2022-11-20T03:14:30;100285.50;;;0.28;56.01
24996;BME280;13016;52.162;21.034;2022-11-20T03:16:56;100287.92;;;0.19;56.36
24996;BME280;13016;52.162;21.034;2022-11-20T03:19:21;100283.33;;;0.48;55.98
24996;BME280;13016;52.162;21.034;2022-11-20T03:21:47;100283.94;;;0.44;55.80
24996;BME280;13016;52.162;21.034;2022-11-20T03:24:12;100279.94;;;0.36;56.11
24996;BME280;13016;52.162;21.034;2022-11-20T03:26:38;100278.45;;;0.08;56.80
24996;BME280;13016;52.162;21.034;2022-11-20T03:29:04;100278.31;;;0.15;56.79
24996;BME280;13016;52.162;21.034;2022-11-20T03:31:32;100276.11;;;0.20;56.72
24996;BME280;13016;52.162;21.034;2022-11-20T03:33:58;100275.90;;;0.22;56.64
24996;BME280;13016;52.162;21.034;2022-11-20T03:36:25;100276.82;;;0.28;56.62
24996;BME280;13016;52.162;21.034;2022-11-20T03:38:52;100272.30;;;0.20;56.57
24996;BME280;13016;52.162;21.034;2022-11-20T03:41:22;100265.86;;;0.13;57.00
24996;BME280;13016;52.162;21.034;2022-11-20T03:43:49;100269.93;;;0.26;56.91
24996;BME280;13016;52.162;21.034;2022-11-20T03:46:14;100270.27;;;0.09;57.25
24996;BME280;13016;52.162;21.034;2022-11-20T03:48:39;100268.60;;;0.15;57.42
24996;BME280;13016;52.162;21.034;2022-11-20T03:51:09;100263.98;;;0.28;57.01
24996;BME280;13016;52.162;21.034;2022-11-20T03:53:35;100259.36;;;-0.01;57.82
24996;BME280;13016;52.162;21.034;2022-11-20T03:56:00;100260.23;;;-0.09;58.30
24996;BME280;13016;52.162;21.034;2022-11-20T03:58:25;100264.07;;;0.23;58.05
24996;BME280;13016;52.162;21.034;2022-11-20T04:00:50;100270.23;;;0.43;57.41
24996;BME280;13016;52.162;21.034;2022-11-20T04:03:16;100271.86;;;0.33;57.47
24996;BME280;13016;52.162;21.034;2022-11-20T04:05:41;100270.05;;;0.37;57.42
24996;BME280;13016;52.162;21.034;2022-11-20T04:08:07;100266.20;;;0.46;57.32
24996;BME280;13016;52.162;21.034;2022-11-20T04:10:33;100271.90;;;0.63;56.99
24996;BME280;13016;52.162;21.034;2022-11-20T04:12:58;100265.69;;;0.46;56.81
24996;BME280;13016;52.162;21.034;2022-11-20T04:15:24;100261.52;;;0.21;57.37
24996;BME280;13016;52.162;21.034;2022-11-20T04:17:49;100261.60;;;0.18;57.52
24996;BME280;13016;52.162;21.034;2022-11-20T04:20:15;100258.49;;;0.08;57.81
24996;BME280;13016;52.162;21.034;2022-11-20T04:22:40;100258.60;;;0.03;57.92
24996;BME280;13016;52.162;21.034;2022-11-20T04:25:05;100254.52;;;-0.10;58.23
24996;BME280;13016;52.162;21.034;2022-11-20T04:27:31;100257.20;;;0.12;57.89
24996;BME280;13016;52.162;21.034;2022-11-20T04:29:56;100258.23;;;-0.13;58.00
24996;BME280;13016;52.162;21.034;2022-11-20T04:32:21;100262.73;;;-0.13;58.19
24996;BME280;13016;52.162;21.034;2022-11-20T04:34:46;100255.27;;;0.05;57.88
24996;BME280;13016;52.162;21.034;2022-11-20T04:37:12;100254.12;;;0.18;57.42
24996;BME280;13016;52.162;21.034;2022-11-20T04:39:37;100253.10;;;-0.00;57.28
24996;BME280;13016;52.162;21.034;2022-11-20T04:42:02;100249.41;;;-0.06;57.32
24996;BME280;13016;52.162;21.034;2022-11-20T04:44:28;100242.50;;;-0.16;57.43
24996;BME280;13016;52.162;21.034;2022-11-20T04:46:53;100239.24;;;-0.27;57.55
24996;BME280;13016;52.162;21.034;2022-11-20T04:49:18;100237.04;;;-0.21;57.56
24996;BME280;13016;52.162;21.034;2022-11-20T04:51:43;100235.45;;;-0.18;57.37
24996;BME280;13016;52.162;21.034;2022-11-20T04:54:10;100234.48;;;-0.14;57.14
24996;BME280;13016;52.162;21.034;2022-11-20T04:56:36;100232.80;;;-0.16;57.02
24996;BME280;13016;52.162;21.034;2022-11-20T04:59:02;100231.98;;;-0.11;56.85
24996;BME280;13016;52.162;21.034;2022-11-20T05:01:27;100231.27;;;-0.09;56.74
24996;BME280;13016;52.162;21.034;2022-11-20T05:03:52;100229.69;;;0.01;56.50
24996;BME280;13016;52.162;21.034;2022-11-20T05:06:20;100228.65;;;0.01;56.33
24996;BME280;13016;52.162;21.034;2022-11-20T05:08:45;100231.91;;;0.02;56.38
24996;BME280;13016;52.162;21.034;2022-11-20T05:11:17;100233.07;;;0.05;56.11
24996;BME280;13016;52.162;21.034;2022-11-20T05:13:43;100232.91;;;0.04;56.29
24996;BME280;13016;52.162;21.034;2022-11-20T05:16:11;100234.61;;;0.23;55.93
24996;BME280;13016;52.162;21.034;2022-11-20T05:18:37;100237.52;;;0.25;55.70
24996;BME280;13016;52.162;21.034;2022-11-20T05:21:03;100236.70;;;0.22;55.56
24996;BME280;13016;52.162;21.034;2022-11-20T05:23:30;100238.67;;;0.11;55.62
24996;BME280;13016;52.162;21.034;2022-11-20T05:25:57;100230.84;;;-0.05;55.90
24996;BME280;13016;52.162;21.034;2022-11-20T05:28:23;100233.96;;;-0.23;56.42
24996;BME280;13016;52.162;21.034;2022-11-20T05:30:49;100234.15;;;-0.41;57.17
24996;BME280;13016;52.162;21.034;2022-11-20T05:33:15;100234.77;;;-0.28;57.04
24996;BME280;13016;52.162;21.034;2022-11-20T05:35:41;100237.14;;;-0.26;56.89
24996;BME280;13016;52.162;21.034;2022-11-20T05:38:06;100237.56;;;-0.29;56.88
24996;BME280;13016;52.162;21.034;2022-11-20T05:40:31;100230.54;;;-0.61;57.69
24996;BME280;13016;52.162;21.034;2022-11-20T05:42:57;100226.13;;;-0.48;57.62
24996;BME280;13016;52.162;21.034;2022-11-20T05:45:22;100225.02;;;-0.53;57.56
24996;BME280;13016;52.162;21.034;2022-11-20T05:47:47;100229.36;;;-0.45;57.50
24996;BME280;13016;52.162;21.034;2022-11-20T05:50:13;100226.98;;;-0.47;57.34
24996;BME280;13016;52.162;21.034;2022-11-20T05:52:38;100228.77;;;-0.32;57.19
24996;BME280;13016;52.162;21.034;2022-11-20T05:55:04;100227.89;;;-0.31;56.89
24996;BME280;13016;52.162;21.034;2022-11-20T05:57:31;100229.98;;;-0.32;56.92
24996;BME280;13016;52.162;21.034;2022-11-20T05:59:56;100227.80;;;-0.35;56.82
24996;BME280;13016;52.162;21.034;2022-11-20T06:02:21;100226.00;;;-0.40;57.00
24996;BME280;13016;52.162;21.034;2022-11-20T06:04:46;100219.64;;;-0.44;57.09
24996;BME280;13016;52.162;21.034;2022-11-20T06:07:12;100219.27;;;-0.43;56.92
24996;BME280;13016;52.162;21.034;2022-11-20T06:09:37;100216.37;;;-0.36;57.04
24996;BME280;13016;52.162;21.034;2022-11-20T06:12:02;100215.71;;;-0.29;56.84
24996;BME280;13016;52.162;21.034;2022-11-20T06:14:27;100211.30;;;-0.34;56.64
24996;BME280;13016;52.162;21.034;2022-11-20T06:16:53;100205.90;;;-0.59;57.22
24996;BME280;13016;52.162;21.034;2022-11-20T06:19:18;100211.36;;;-0.55;57.26
24996;BME280;13016;52.162;21.034;2022-11-20T06:21:43;100209.83;;;-0.56;57.25
24996;BME280;13016;52.162;21.034;2022-11-20T06:24:09;100209.16;;;-0.48;57.24
24996;BME280;13016;52.162;21.034;2022-11-20T06:26:35;100202.75;;;-0.58;57.21
24996;BME280;13016;52.162;21.034;2022-11-20T06:29:00;100202.21;;;-0.75;57.76
24996;BME280;13016;52.162;21.034;2022-11-20T06:31:26;100201.73;;;-0.58;57.72
24996;BME280;13016;52.162;21.034;2022-11-20T06:33:52;100203.51;;;-0.52;57.43
24996;BME280;13016;52.162;21.034;2022-11-20T06:36:19;100204.62;;;-0.46;57.28
24996;BME280;13016;52.162;21.034;2022-11-20T06:38:45;100201.75;;;-0.50;57.35
24996;BME280;13016;52.162;21.034;2022-11-20T06:41:13;100204.73;;;-0.71;57.79
24996;BME280;13016;52.162;21.034;2022-11-20T06:43:39;100210.55;;;-0.77;58.10
24996;BME280;13016;52.162;21.034;2022-11-20T06:46:05;100204.79;;;-0.65;57.99
24996;BME280;13016;52.162;21.034;2022-11-20T06:48:30;100207.59;;;-0.47;57.61
24996;BME280;13016;52.162;21.034;2022-11-20T06:50:58;100206.73;;;-0.58;57.54
24996;BME280;13016;52.162;21.034;2022-11-20T06:53:24;100210.98;;;-0.54;57.63
24996;BME280;13016;52.162;21.034;2022-11-20T06:55:50;100211.42;;;-0.78;58.11
24996;BME280;13016;52.162;21.034;2022-11-20T06:58:16;100208.23;;;-0.82;58.53
24996;BME280;13016;52.162;21.034;2022-11-20T07:00:42;100208.14;;;-0.59;58.25
24996;BME280;13016;52.162;21.034;2022-11-20T07:03:10;100211.23;;;-0.31;57.67
24996;BME280;13016;52.162;21.034;2022-11-20T07:05:36;100209.02;;;-0.33;57.33
24996;BME280;13016;52.162;21.034;2022-11-20T07:08:02;100209.98;;;-0.11;57.22
24996;BME280;13016;52.162;21.034;2022-11-20T07:10:27;100207.39;;;-0.03;56.81
24996;BME280;13016;52.162;21.034;2022-11-20T07:12:53;100203.90;;;-0.02;56.63
24996;BME280;13016;52.162;21.034;2022-11-20T07:15:20;100201.42;;;0.01;56.53
24996;BME280;13016;52.162;21.034;2022-11-20T07:17:45;100193.92;;;0.19;56.17
24996;BME280;13016;52.162;21.034;2022-11-20T07:20:11;100186.97;;;0.03;56.23
24996;BME280;13016;52.162;21.034;2022-11-20T07:22:37;100189.46;;;0.00;56.58
24996;BME280;13016;52.162;21.034;2022-11-20T07:25:03;100190.13;;;0.10;56.50
24996;BME280;13016;52.162;21.034;2022-11-20T07:27:29;100187.13;;;0.36;56.18
24996;BME280;13016;52.162;21.034;2022-11-20T07:29:54;100190.70;;;0.47;55.63
24996;BME280;13016;52.162;21.034;2022-11-20T07:32:19;100188.81;;;0.75;55.21
24996;BME280;13016;52.162;21.034;2022-11-20T07:34:45;100189.50;;;0.82;54.80
24996;BME280;13016;52.162;21.034;2022-11-20T07:37:10;100189.09;;;0.85;54.49
24996;BME280;13016;52.162;21.034;2022-11-20T07:39:35;100187.67;;;1.00;54.30
24996;BME280;13016;52.162;21.034;2022-11-20T07:42:00;100189.42;;;1.13;53.86
24996;BME280;13016;52.162;21.034;2022-11-20T07:44:26;100188.61;;;1.31;53.56
24996;BME280;13016;52.162;21.034;2022-11-20T07:46:51;100187.13;;;1.48;53.17
24996;BME280;13016;52.162;21.034;2022-11-20T07:49:16;100185.09;;;1.71;52.83
24996;BME280;13016;52.162;21.034;2022-11-20T07:51:41;100188.48;;;1.98;52.39
24996;BME280;13016;52.162;21.034;2022-11-20T07:54:07;100185.27;;;1.89;51.83
24996;BME280;13016;52.162;21.034;2022-11-20T07:56:32;100182.03;;;1.92;51.88
24996;BME280;13016;52.162;21.034;2022-11-20T07:58:57;100180.94;;;1.70;52.08
24996;BME280;13016;52.162;21.034;2022-11-20T08:01:23;100180.70;;;1.91;52.19
24996;BME280;13016;52.162;21.034;2022-11-20T08:03:48;100184.46;;;1.99;51.81
24996;BME280;13016;52.162;21.034;2022-11-20T08:06:13;100183.67;;;2.37;51.52
24996;BME280;13016;52.162;21.034;2022-11-20T08:08:38;100177.37;;;2.38;50.75
24996;BME280;13016;52.162;21.034;2022-11-20T08:11:04;100178.52;;;2.12;51.30
24996;BME280;13016;52.162;21.034;2022-11-20T08:13:29;100174.30;;;2.00;51.70
24996;BME280;13016;52.162;21.034;2022-11-20T08:15:55;100171.20;;;2.29;51.18
24996;BME280;13016;52.162;21.034;2022-11-20T08:18:20;100168.06;;;2.51;50.99
24996;BME280;13016;52.162;21.034;2022-11-20T08:20:45;100169.83;;;2.62;50.79
24996;BME280;13016;52.162;21.034;2022-11-20T08:23:11;100172.53;;;2.75;50.26
24996;BME280;13016;52.162;21.034;2022-11-20T08:25:37;100167.44;;;2.71;50.55
24996;BME280;13016;52.162;21.034;2022-11-20T08:28:06;100172.58;;;2.79;50.12
24996;BME280;13016;52.162;21.034;2022-11-20T08:30:32;100171.77;;;2.55;50.63
24996;BME280;13016;52.162;21.034;2022-11-20T08:33:02;100167.84;;;2.53;51.21
24996;BME280;13016;52.162;21.034;2022-11-20T08:35:32;100165.92;;;2.85;50.71
24996;BME280;13016;52.162;21.034;2022-11-20T08:37:58;100160.79;;;2.88;50.52
24996;BME280;13016;52.162;21.034;2022-11-20T08:40:23;100162.13;;;3.25;50.44
24996;BME280;13016;52.162;21.034;2022-11-20T08:42:49;100160.47;;;3.58;49.73
24996;BME280;13016;52.162;21.034;2022-11-20T08:45:16;100158.46;;;3.25;49.41
24996;BME280;13016;52.162;21.034;2022-11-20T08:47:42;100159.73;;;3.14;49.91
24996;BME280;13016;52.162;21.034;2022-11-20T08:50:09;100157.02;;;3.16;49.88
24996;BME280;13016;52.162;21.034;2022-11-20T08:52:34;100155.67;;;3.10;50.18
24996;BME280;13016;52.162;21.034;2022-11-20T08:55:00;100155.81;;;3.36;50.35
24996;BME280;13016;52.162;21.034;2022-11-20T08:57:25;100156.77;;;3.77;49.75
24996;BME280;13016;52.162;21.034;2022-11-20T08:59:50;100152.71;;;3.98;48.84
24996;BME280;13016;52.162;21.034;2022-11-20T09:02:15;100151.02;;;4.01;48.58
24996;BME280;13016;52.162;21.034;2022-11-20T09:04:41;100142.62;;;3.78;49.02
24996;BME280;13016;52.162;21.034;2022-11-20T09:07:06;100137.79;;;3.95;48.61
24996;BME280;13016;52.162;21.034;2022-11-20T09:09:31;100137.15;;;3.93;48.75
24996;BME280;13016;52.162;21.034;2022-11-20T09:11:56;100141.86;;;4.07;48.67
24996;BME280;13016;52.162;21.034;2022-11-20T09:14:21;100137.14;;;3.89;48.56
24996;BME280;13016;52.162;21.034;2022-11-20T09:16:47;100131.98;;;3.87;49.09
24996;BME280;13016;52.162;21.034;2022-11-20T09:19:12;100127.55;;;3.56;49.60
24996;BME280;13016;52.162;21.034;2022-11-20T09:21:37;100125.05;;;3.33;50.35
24996;BME280;13016;52.162;21.034;2022-11-20T09:24:04;100120.57;;;3.22;51.20
24996;BME280;13016;52.162;21.034;2022-11-20T09:26:29;100120.31;;;3.24;50.92
24996;BME280;13016;52.162;21.034;2022-11-20T09:28:55;100116.36;;;3.18;51.28
24996;BME280;13016;52.162;21.034;2022-11-20T09:31:24;100114.60;;;3.14;51.59
24996;BME280;13016;52.162;21.034;2022-11-20T09:33:50;100113.74;;;3.27;51.53
24996;BME280;13016;52.162;21.034;2022-11-20T09:36:15;100109.33;;;2.85;52.60
24996;BME280;13016;52.162;21.034;2022-11-20T09:38:40;100104.82;;;2.74;53.03
24996;BME280;13016;52.162;21.034;2022-11-20T09:41:06;100101.31;;;2.95;53.09
24996;BME280;13016;52.162;21.034;2022-11-20T09:47:00;100102.06;;;2.98;53.17
24996;BME280;13016;52.162;21.034;2022-11-20T09:52:24;100104.23;;;3.60;52.35
24996;BME280;13016;52.162;21.034;2022-11-20T09:54:53;100104.19;;;3.47;52.44
24996;BME280;13016;52.162;21.034;2022-11-20T09:57:33;100109.55;;;3.47;52.74
24996;BME280;13016;52.162;21.034;2022-11-20T10:00:04;100113.16;;;3.68;52.80
24996;BME280;13016;52.162;21.034;2022-11-20T10:02:37;100112.68;;;3.94;51.77
24996;BME280;13016;52.162;21.034;2022-11-20T10:08:07;100118.05;;;3.96;51.43
24996;BME280;13016;52.162;21.034;2022-11-20T10:10:52;100111.77;;;4.13;50.96
24996;BME280;13016;52.162;21.034;2022-11-20T10:26:05;100080.73;;;3.81;51.88
24996;BME280;13016;52.162;21.034;2022-11-20T10:28:42;100079.38;;;4.03;51.85
24996;BME280;13016;52.162;21.034;2022-11-20T10:31:47;100080.33;;;4.23;51.51
24996;BME280;13016;52.162;21.034;2022-11-20T10:36:46;100072.73;;;4.34;51.17
24996;BME280;13016;52.162;21.034;2022-11-20T10:41:49;100069.98;;;4.50;51.17
24996;BME280;13016;52.162;21.034;2022-11-20T10:44:27;100070.10;;;4.55;50.75
24996;BME280;13016;52.162;21.034;2022-11-20T10:46:53;100069.23;;;4.63;51.14
24996;BME280;13016;52.162;21.034;2022-11-20T10:49:19;100064.38;;;4.75;50.85
24996;BME280;13016;52.162;21.034;2022-11-20T10:52:05;100063.77;;;4.77;51.11
24996;BME280;13016;52.162;21.034;2022-11-20T11:00:02;100060.77;;;4.74;50.18
24996;BME280;13016;52.162;21.034;2022-11-20T11:05:29;100062.65;;;4.54;51.19
24996;BME280;13016;52.162;21.034;2022-11-20T11:07:58;100062.54;;;4.64;50.87
24996;BME280;13016;52.162;21.034;2022-11-20T11:10:39;100061.16;;;4.60;50.72
24996;BME280;13016;52.162;21.034;2022-11-20T11:13:23;100055.67;;;4.62;50.57
24996;BME280;13016;52.162;21.034;2022-11-20T11:15:48;100054.29;;;4.70;50.56
24996;BME280;13016;52.162;21.034;2022-11-20T11:18:24;100053.66;;;4.60;50.71
24996;BME280;13016;52.162;21.034;2022-11-20T11:20:50;100058.23;;;4.75;50.78
24996;BME280;13016;52.162;21.034;2022-11-20T11:23:45;100054.98;;;5.06;50.25
24996;BME280;13016;52.162;21.034;2022-11-20T11:26:21;100050.06;;;5.11;49.74
24996;BME280;13016;52.162;21.034;2022-11-20T11:28:55;100053.80;;;4.85;49.60
24996;BME280;13016;52.162;21.034;2022-11-20T11:31:29;100051.13;;;4.70;50.36
24996;BME280;13016;52.162;21.034;2022-11-20T11:34:16;100054.19;;;4.64;50.44
24996;BME280;13016;52.162;21.034;2022-11-20T11:36:47;100053.14;;;4.97;50.29
24996;BME280;13016;52.162;21.034;2022-11-20T11:39:18;100056.02;;;5.26;49.63
24996;BME280;13016;52.162;21.034;2022-11-20T11:41:45;100058.80;;;5.34;49.56
24996;BME280;13016;52.162;21.034;2022-11-20T11:44:21;100056.85;;;5.43;49.23
24996;BME280;13016;52.162;21.034;2022-11-20T11:46:54;100050.33;;;5.59;48.88
24996;BME280;13016;52.162;21.034;2022-11-20T11:49:21;100046.95;;;5.53;49.05
24996;BME280;13016;52.162;21.034;2022-11-20T11:54:41;100041.98;;;5.66;48.39
24996;BME280;13016;52.162;21.034;2022-11-20T11:57:16;100040.19;;;5.51;48.40
24996;BME280;13016;52.162;21.034;2022-11-20T12:02:34;100029.74;;;5.39;48.59
24996;BME280;13016;52.162;21.034;2022-11-20T12:13:54;100020.09;;;5.70;48.34
24996;BME280;13016;52.162;21.034;2022-11-20T12:16:21;100020.52;;;5.83;47.93
24996;BME280;13016;52.162;21.034;2022-11-20T12:18:52;100014.05;;;5.64;47.65
24996;BME280;13016;52.162;21.034;2022-11-20T12:21:51;100007.27;;;5.41;48.03
24996;BME280;13016;52.162;21.034;2022-11-20T12:30:14;100007.15;;;5.51;47.68
24996;BME280;13016;52.162;21.034;2022-11-20T12:33:13;100005.46;;;5.23;48.12
24996;BME280;13016;52.162;21.034;2022-11-20T12:36:08;99998.88;;;5.52;48.16
24996;BME280;13016;52.162;21.034;2022-11-20T12:41:24;99990.71;;;5.89;47.28
24996;BME280;13016;52.162;21.034;2022-11-20T12:44:04;99987.73;;;5.70;47.32
24996;BME280;13016;52.162;21.034;2022-11-20T12:46:46;99986.54;;;5.54;47.36
24996;BME280;13016;52.162;21.034;2022-11-20T12:49:34;99987.02;;;5.51;47.39
24996;BME280;13016;52.162;21.034;2022-11-20T12:52:20;99987.73;;;5.66;47.77
24996;BME280;13016;52.162;21.034;2022-11-20T12:57:35;99977.95;;;5.80;47.33
24996;BME280;13016;52.162;21.034;2022-11-20T13:08:39;99970.06;;;6.07;47.23
24996;BME280;13016;52.162;21.034;2022-11-20T13:11:25;99965.70;;;5.73;46.88
24996;BME280;13016;52.162;21.034;2022-11-20T13:16:58;99961.69;;;5.43;48.75
24996;BME280;13016;52.162;21.034;2022-11-20T13:19:25;99958.77;;;5.64;48.75
24996;BME280;13016;52.162;21.034;2022-11-20T13:21:51;99955.44;;;5.38;48.35
24996;BME280;13016;52.162;21.034;2022-11-20T13:24:23;99950.83;;;5.43;48.58
24996;BME280;13016;52.162;21.034;2022-11-20T13:27:16;99948.69;;;5.66;48.88
24996;BME280;13016;52.162;21.034;2022-11-20T13:29:44;99947.52;;;5.65;49.91
24996;BME280;13016;52.162;21.034;2022-11-20T13:34:38;99941.11;;;5.49;50.60
24996;BME280;13016;52.162;21.034;2022-11-20T13:37:04;99941.10;;;5.49;50.75
24996;BME280;13016;52.162;21.034;2022-11-20T13:39:32;99943.44;;;5.44;50.68
24996;BME280;13016;52.162;21.034;2022-11-20T13:42:03;99940.72;;;5.35;50.97
24996;BME280;13016;52.162;21.034;2022-11-20T13:44:53;99940.51;;;5.29;51.28
24996;BME280;13016;52.162;21.034;2022-11-20T13:47:26;99940.88;;;5.24;51.51
24996;BME280;13016;52.162;21.034;2022-11-20T13:49:52;99938.89;;;5.11;51.63
24996;BME280;13016;52.162;21.034;2022-11-20T13:55:02;99930.42;;;5.20;51.88
24996;BME280;13016;52.162;21.034;2022-11-20T14:00:22;99930.08;;;5.01;52.24
24996;BME280;13016;52.162;21.034;2022-11-20T14:03:09;99928.77;;;4.87;52.56
24996;BME280;13016;52.162;21.034;2022-11-20T14:05:49;99926.08;;;4.93;52.76
24996;BME280;13016;52.162;21.034;2022-11-20T14:08:24;99925.27;;;4.99;52.58
24996;BME280;13016;52.162;21.034;2022-11-20T14:10:50;99921.59;;;4.99;52.60
24996;BME280;13016;52.162;21.034;2022-11-20T14:13:18;99920.44;;;4.94;52.80
24996;BME280;13016;52.162;21.034;2022-11-20T14:15:44;99919.20;;;4.87;53.05
24996;BME280;13016;52.162;21.034;2022-11-20T14:18:14;99918.27;;;4.72;53.49
24996;BME280;13016;52.162;21.034;2022-11-20T14:20:41;99915.77;;;4.70;53.66
24996;BME280;13016;52.162;21.034;2022-11-20T14:23:09;99916.45;;;4.54;54.42